createdAt,value
2024-02-10T00:00:27.690Z,100.00
2024-02-10T00:01:35.782Z,100.00
2024-02-10T00:02:37.319Z,100.00
2024-02-10T00:03:38.778Z,100.00
2024-02-10T00:04:40.461Z,100.00
2024-02-10T00:05:46.223Z,100.00
2024-02-10T00:06:47.821Z,100.00
2024-02-10T00:07:56.589Z,100.00
2024-02-10T00:08:58.238Z,100.00
2024-02-10T00:10:01.466Z,100.00
2024-02-10T00:11:03.595Z,100.00
2024-02-10T00:12:06.600Z,100.00
2024-02-10T00:13:08.541Z,100.00
2024-02-10T00:14:12.362Z,100.00
2024-02-10T00:15:15.721Z,100.00
2024-02-10T00:16:17.227Z,100.00
2024-02-10T00:17:18.698Z,100.00
2024-02-10T00:18:20.590Z,100.00
2024-02-10T00:19:23.008Z,100.00
2024-02-10T00:20:26.919Z,100.00
2024-02-10T00:21:31.053Z,100.00
2024-02-10T00:22:32.587Z,100.00
2024-02-10T00:23:34.185Z,100.00
2024-02-10T00:24:35.792Z,100.00
2024-02-10T00:25:37.446Z,100.00
2024-02-10T00:26:40.014Z,100.00
2024-02-10T00:27:41.971Z,100.00
2024-02-10T00:28:44.429Z,100.00
2024-02-10T00:29:46.359Z,100.00
2024-02-10T00:30:49.751Z,100.00
2024-02-10T00:31:51.266Z,100.00
2024-02-10T00:32:53.444Z,100.00
2024-02-10T00:33:58.701Z,100.00
2024-02-10T00:35:00.797Z,100.00
2024-02-10T00:36:02.356Z,100.00
2024-02-10T00:37:03.880Z,100.00
2024-02-10T00:38:05.367Z,100.00
2024-02-10T00:39:06.838Z,100.00
2024-02-10T00:40:08.977Z,100.00
2024-02-10T00:41:11.623Z,100.00
2024-02-10T00:42:14.597Z,100.00
2024-02-10T00:43:16.090Z,100.00
2024-02-10T00:44:18.228Z,100.00
2024-02-10T00:45:20.677Z,100.00
2024-02-10T00:46:23.017Z,100.00
2024-02-10T00:47:24.489Z,100.00
2024-02-10T00:48:29.420Z,100.00
2024-02-10T00:49:33.726Z,100.00
2024-02-10T00:50:35.263Z,100.00
2024-02-10T00:51:36.702Z,100.00
2024-02-10T00:52:38.421Z,100.00
2024-02-10T00:53:42.977Z,100.00
2024-02-10T00:54:46.575Z,100.00
2024-02-10T00:55:48.072Z,100.00
2024-02-10T00:56:49.571Z,100.00
2024-02-10T00:57:51.022Z,100.00
2024-02-10T00:58:52.740Z,100.00
2024-02-10T00:59:54.225Z,100.00
2024-02-10T01:00:57.222Z,100.00
2024-02-10T01:02:01.509Z,100.00
2024-02-10T01:03:07.473Z,100.00
2024-02-10T01:04:09.210Z,100.00
2024-02-10T01:05:10.765Z,100.00
2024-02-10T01:06:23.173Z,100.00
2024-02-10T01:07:26.156Z,100.00
2024-02-10T01:08:27.764Z,100.00
2024-02-10T01:09:30.454Z,100.00
2024-02-10T01:10:32.637Z,100.00
2024-02-10T01:11:34.987Z,100.00
2024-02-10T01:12:36.998Z,100.00
2024-02-10T01:13:38.462Z,100.00
2024-02-10T01:14:41.799Z,100.00
2024-02-10T01:15:44.097Z,100.00
2024-02-10T01:16:45.656Z,100.00
2024-02-10T01:17:47.786Z,100.00
2024-02-10T01:18:50.617Z,100.00
2024-02-10T01:19:52.458Z,100.00
2024-02-10T01:20:54.013Z,100.00
2024-02-10T01:21:58.291Z,100.00
2024-02-10T01:23:00.482Z,100.00
2024-02-10T01:24:03.477Z,100.00
2024-02-10T01:25:05.638Z,100.00
2024-02-10T01:26:08.115Z,100.00
2024-02-10T01:27:11.752Z,100.00
2024-02-10T01:28:13.320Z,100.00
2024-02-10T01:29:14.801Z,100.00
2024-02-10T01:30:19.000Z,100.00
2024-02-10T01:31:25.517Z,100.00
2024-02-10T01:32:27.116Z,100.00
2024-02-10T01:33:30.278Z,100.00
2024-02-10T01:34:33.837Z,100.00
2024-02-10T01:35:35.303Z,100.00
2024-02-10T01:36:36.804Z,100.00
2024-02-10T01:37:40.143Z,100.00
2024-02-10T01:38:45.779Z,100.00
2024-02-10T01:39:48.920Z,100.00
2024-02-10T01:40:52.243Z,100.00
2024-02-10T01:41:53.756Z,100.00
2024-02-10T01:42:56.472Z,100.00
2024-02-10T01:43:59.785Z,100.00
2024-02-10T01:45:01.291Z,100.00
2024-02-10T01:46:02.783Z,100.00
2024-02-10T01:47:04.436Z,100.00
2024-02-10T01:48:09.703Z,100.00
2024-02-10T01:49:12.338Z,100.00
2024-02-10T01:50:14.894Z,100.00
2024-02-10T01:51:19.989Z,100.00
2024-02-10T01:52:21.911Z,100.00
2024-02-10T01:53:25.733Z,100.00
2024-02-10T01:54:27.859Z,100.00
2024-02-10T01:55:33.041Z,100.00
2024-02-10T01:56:39.939Z,100.00
2024-02-10T01:57:41.916Z,100.00
2024-02-10T01:58:48.364Z,100.00
2024-02-10T01:59:49.985Z,100.00
2024-02-10T02:00:52.337Z,100.00
2024-02-10T02:01:54.474Z,100.00
2024-02-10T02:03:00.665Z,100.00
2024-02-10T02:04:06.168Z,100.00
2024-02-10T02:05:07.857Z,100.00
2024-02-10T02:06:12.060Z,100.00
2024-02-10T02:07:14.006Z,100.00
2024-02-10T02:08:15.502Z,100.00
2024-02-10T02:09:17.290Z,100.00
2024-02-10T02:10:22.165Z,100.00
2024-02-10T02:11:24.684Z,100.00
2024-02-10T02:12:26.692Z,100.00
2024-02-10T02:13:28.100Z,100.00
2024-02-10T02:14:29.586Z,100.00
2024-02-10T02:15:31.300Z,100.00
2024-02-10T02:16:35.610Z,100.00
2024-02-10T02:17:38.781Z,100.00
2024-02-10T02:18:40.862Z,100.00
2024-02-10T02:19:43.845Z,100.00
2024-02-10T02:20:48.475Z,100.00
2024-02-10T02:21:50.023Z,100.00
2024-02-10T02:22:54.894Z,100.00
2024-02-10T02:23:56.519Z,100.00
2024-02-10T02:24:57.971Z,100.00
2024-02-10T02:25:59.434Z,100.00
2024-02-10T02:27:01.346Z,100.00
2024-02-10T02:28:02.840Z,100.00
2024-02-10T02:29:09.060Z,100.00
2024-02-10T02:30:11.211Z,100.00
2024-02-10T02:31:14.851Z,100.00
2024-02-10T02:32:16.345Z,100.00
2024-02-10T02:33:17.881Z,100.00
2024-02-10T02:34:19.344Z,100.00
2024-02-10T02:35:21.087Z,100.00
2024-02-10T02:36:22.633Z,100.00
2024-02-10T02:37:24.187Z,100.00
2024-02-10T02:38:25.711Z,100.00
2024-02-10T02:39:28.333Z,100.00
2024-02-10T02:40:29.884Z,100.00
2024-02-10T02:41:31.353Z,100.00
2024-02-10T02:42:33.026Z,100.00
2024-02-10T02:43:37.127Z,100.00
2024-02-10T02:44:38.740Z,100.00
2024-02-10T02:45:43.754Z,100.00
2024-02-10T02:46:45.580Z,100.00
2024-02-10T02:47:47.182Z,100.00
2024-02-10T02:48:51.729Z,100.00
2024-02-10T02:49:53.366Z,100.00
2024-02-10T02:50:55.926Z,100.00
2024-02-10T02:51:57.493Z,100.00
2024-02-10T02:53:03.168Z,100.00
2024-02-10T02:54:05.554Z,100.00
2024-02-10T02:55:09.629Z,100.00
2024-02-10T02:56:15.769Z,100.00
2024-02-10T02:57:19.277Z,100.00
2024-02-10T02:58:20.734Z,100.00
2024-02-10T02:59:22.260Z,100.00
2024-02-10T03:00:23.840Z,100.00
2024-02-10T03:01:25.434Z,100.00
2024-02-10T03:02:27.809Z,100.00
2024-02-10T03:03:29.865Z,100.00
2024-02-10T03:04:31.572Z,100.00
2024-02-10T03:05:33.408Z,100.00
2024-02-10T03:06:34.908Z,100.00
2024-02-10T03:07:36.398Z,100.00
2024-02-10T03:08:38.829Z,100.00
2024-02-10T03:09:40.483Z,100.00
2024-02-10T03:10:42.579Z,100.00
2024-02-10T03:11:44.361Z,100.00
2024-02-10T03:12:49.939Z,100.00
2024-02-10T03:13:51.485Z,100.00
2024-02-10T03:14:52.966Z,100.00
2024-02-10T03:15:54.543Z,100.00
2024-02-10T03:16:56.327Z,100.00
2024-02-10T03:17:57.928Z,100.00
2024-02-10T03:19:05.077Z,100.00
2024-02-10T03:20:07.357Z,100.00
2024-02-10T03:21:10.476Z,100.00
2024-02-10T03:22:14.145Z,100.00
2024-02-10T03:23:15.751Z,100.00
2024-02-10T03:24:17.701Z,100.00
2024-02-10T03:25:19.975Z,100.00
2024-02-10T03:26:21.440Z,100.00
2024-02-10T03:27:23.105Z,100.00
2024-02-10T03:28:26.025Z,100.00
2024-02-10T03:29:28.216Z,100.00
2024-02-10T03:30:29.713Z,100.00
2024-02-10T03:31:31.292Z,100.00
2024-02-10T03:32:33.655Z,100.00
2024-02-10T03:33:35.811Z,100.00
2024-02-10T03:34:37.473Z,100.00
2024-02-10T03:35:39.059Z,100.00
2024-02-10T03:36:40.518Z,100.00
2024-02-10T03:37:42.200Z,100.00
2024-02-10T03:38:43.763Z,100.00
2024-02-10T03:39:45.220Z,100.00
2024-02-10T03:40:47.746Z,100.00
2024-02-10T03:41:51.175Z,100.00
2024-02-10T03:42:52.662Z,100.00
2024-02-10T03:43:54.910Z,100.00
2024-02-10T03:44:56.566Z,100.00
2024-02-10T03:45:58.070Z,100.00
2024-02-10T03:47:02.895Z,100.00
2024-02-10T03:48:05.994Z,100.00
2024-02-10T03:49:07.625Z,100.00
2024-02-10T03:50:10.946Z,100.00
2024-02-10T03:51:13.148Z,100.00
2024-02-10T03:52:16.134Z,100.00
2024-02-10T03:53:18.686Z,100.00
2024-02-10T03:54:20.257Z,100.00
2024-02-10T03:55:25.296Z,100.00
2024-02-10T03:56:28.115Z,100.00
2024-02-10T03:57:31.537Z,100.00
2024-02-10T03:58:33.060Z,100.00
2024-02-10T03:59:36.937Z,100.00
2024-02-10T04:00:39.840Z,100.00
2024-02-10T04:01:45.204Z,100.00
2024-02-10T04:02:47.588Z,100.00
2024-02-10T04:03:49.202Z,100.00
2024-02-10T04:04:51.847Z,100.00
2024-02-10T04:05:53.524Z,100.00
2024-02-10T04:06:55.003Z,100.00
2024-02-10T04:07:56.541Z,100.00
2024-02-10T04:08:59.166Z,100.00
2024-02-10T04:10:00.648Z,100.00
2024-02-10T04:11:07.031Z,100.00
2024-02-10T04:12:08.673Z,100.00
2024-02-10T04:13:10.529Z,100.00
2024-02-10T04:14:20.745Z,100.00
2024-02-10T04:15:22.322Z,100.00
2024-02-10T04:16:23.883Z,100.00
2024-02-10T04:17:25.708Z,100.00
2024-02-10T04:18:29.140Z,100.00
2024-02-10T04:19:31.830Z,100.00
2024-02-10T04:20:33.612Z,100.00
2024-02-10T04:21:35.065Z,100.00
2024-02-10T04:22:39.520Z,100.00
2024-02-10T04:23:41.619Z,100.00
2024-02-10T04:24:43.520Z,100.00
2024-02-10T04:25:46.508Z,100.00
2024-02-10T04:26:49.781Z,100.00
2024-02-10T04:27:51.228Z,100.00
2024-02-10T04:28:52.786Z,100.00
2024-02-10T04:29:55.623Z,100.00
2024-02-10T04:30:57.155Z,100.00
2024-02-10T04:32:00.356Z,100.00
2024-02-10T04:33:02.451Z,100.00
2024-02-10T04:34:04.013Z,100.00
2024-02-10T04:35:05.931Z,100.00
2024-02-10T04:36:07.870Z,100.00
2024-02-10T04:37:11.409Z,100.00
2024-02-10T04:38:12.882Z,100.00
2024-02-10T04:39:14.338Z,100.00
2024-02-10T04:40:18.610Z,100.00
2024-02-10T04:41:20.141Z,100.00
2024-02-10T04:42:21.638Z,100.00
2024-02-10T04:43:23.105Z,100.00
2024-02-10T04:44:24.592Z,100.00
2024-02-10T04:45:36.466Z,100.00
2024-02-10T04:46:37.916Z,100.00
2024-02-10T04:47:39.355Z,100.00
2024-02-10T04:48:40.822Z,100.00
2024-02-10T04:49:42.364Z,100.00
2024-02-10T04:50:44.121Z,100.00
2024-02-10T04:51:45.548Z,100.00
2024-02-10T04:52:47.264Z,100.00
2024-02-10T04:53:48.789Z,100.00
2024-02-10T04:54:54.309Z,100.00
2024-02-10T04:55:55.775Z,100.00
2024-02-10T04:56:59.855Z,100.00
2024-02-10T04:58:03.605Z,100.00
2024-02-10T04:59:05.042Z,100.00
2024-02-10T05:00:13.513Z,100.00
2024-02-10T05:01:21.722Z,100.00
2024-02-10T05:02:24.944Z,100.00
2024-02-10T05:03:29.267Z,100.00
2024-02-10T05:04:30.779Z,100.00
2024-02-10T05:05:32.356Z,100.00
2024-02-10T05:06:33.885Z,100.00
2024-02-10T05:07:41.314Z,100.00
2024-02-10T05:08:42.897Z,100.00
2024-02-10T05:09:44.585Z,100.00
2024-02-10T05:10:46.112Z,100.00
2024-02-10T05:11:47.669Z,100.00
2024-02-10T05:12:50.775Z,100.00
2024-02-10T05:13:52.273Z,100.00
2024-02-10T05:14:55.819Z,100.00
2024-02-10T05:15:57.685Z,100.00
2024-02-10T05:16:59.236Z,100.00
2024-02-10T05:18:02.094Z,100.00
2024-02-10T05:19:03.804Z,100.00
2024-02-10T05:20:14.850Z,100.00
2024-02-10T05:21:19.808Z,100.00
2024-02-10T05:22:22.568Z,100.00
2024-02-10T05:23:24.997Z,100.00
2024-02-10T05:24:26.460Z,100.00
2024-02-10T05:25:36.932Z,100.00
2024-02-10T05:26:41.233Z,100.00
2024-02-10T05:27:46.809Z,100.00
2024-02-10T05:28:49.922Z,100.00
2024-02-10T05:29:53.543Z,100.00
2024-02-10T05:30:58.597Z,100.00
2024-02-10T05:32:00.243Z,100.00
2024-02-10T05:33:03.835Z,100.00
2024-02-10T05:34:06.973Z,100.00
2024-02-10T05:35:11.906Z,100.00
2024-02-10T05:36:13.438Z,100.00
2024-02-10T05:37:15.984Z,100.00
2024-02-10T05:38:18.037Z,100.00
2024-02-10T05:39:21.946Z,100.00
2024-02-10T05:40:25.222Z,100.00
2024-02-10T05:41:26.692Z,100.00
2024-02-10T05:42:28.137Z,100.00
2024-02-10T05:43:29.994Z,100.00
2024-02-10T05:44:31.461Z,100.00
2024-02-10T05:45:34.337Z,100.00
2024-02-10T05:46:35.852Z,100.00
2024-02-10T05:47:37.546Z,100.00
2024-02-10T05:48:39.254Z,100.00
2024-02-10T05:49:41.093Z,100.00
2024-02-10T05:50:42.547Z,100.00
2024-02-10T05:51:45.246Z,100.00
2024-02-10T05:52:47.504Z,100.00
2024-02-10T05:53:51.876Z,100.00
2024-02-10T05:54:56.094Z,100.00
2024-02-10T05:55:58.615Z,100.00
2024-02-10T05:57:00.156Z,100.00
2024-02-10T05:58:08.012Z,100.00
2024-02-10T05:59:09.865Z,100.00
2024-02-10T06:00:12.553Z,100.00
2024-02-10T06:01:14.728Z,100.00
2024-02-10T06:02:17.648Z,100.00
2024-02-10T06:03:19.389Z,100.00
2024-02-10T06:04:21.085Z,100.00
2024-02-10T06:05:26.843Z,100.00
2024-02-10T06:06:31.872Z,100.00
2024-02-10T06:07:36.894Z,100.00
2024-02-10T06:08:38.541Z,100.00
2024-02-10T06:09:40.694Z,100.00
2024-02-10T06:10:43.054Z,100.00
2024-02-10T06:11:44.515Z,100.00
2024-02-10T06:12:48.081Z,100.00
2024-02-10T06:13:51.580Z,100.00
2024-02-10T06:14:53.100Z,100.00
2024-02-10T06:15:55.308Z,100.00
2024-02-10T06:16:58.930Z,100.00
2024-02-10T06:18:04.945Z,100.00
2024-02-10T06:19:06.395Z,100.00
2024-02-10T06:20:13.598Z,100.00
2024-02-10T06:21:16.274Z,100.00
2024-02-10T06:22:19.272Z,100.00
2024-02-10T06:23:26.545Z,100.00
2024-02-10T06:24:29.119Z,100.00
2024-02-10T06:25:31.057Z,100.00
2024-02-10T06:26:38.047Z,100.00
2024-02-10T06:27:46.434Z,100.00
2024-02-10T06:28:51.142Z,100.00
2024-02-10T06:29:55.389Z,100.00
2024-02-10T06:30:56.827Z,100.00
2024-02-10T06:31:58.505Z,100.00
2024-02-10T06:33:05.788Z,100.00
2024-02-10T06:34:09.889Z,100.00
2024-02-10T06:35:12.700Z,100.00
2024-02-10T06:36:15.090Z,100.00
2024-02-10T06:37:16.603Z,100.00
2024-02-10T06:38:18.136Z,100.00
2024-02-10T06:39:20.774Z,100.00
2024-02-10T06:40:22.378Z,100.00
2024-02-10T06:41:28.516Z,100.00
2024-02-10T06:42:35.463Z,100.00
2024-02-10T06:43:37.398Z,100.00
2024-02-10T06:44:40.772Z,100.00
2024-02-10T06:45:47.345Z,100.00
2024-02-10T06:46:49.423Z,100.00
2024-02-10T06:47:51.840Z,100.00
2024-02-10T06:48:53.563Z,100.00
2024-02-10T06:49:55.135Z,100.00
2024-02-10T06:50:56.704Z,100.00
2024-02-10T06:52:03.174Z,100.00
2024-02-10T06:53:07.954Z,100.00
2024-02-10T06:54:11.749Z,100.00
2024-02-10T06:55:13.607Z,100.00
2024-02-10T06:56:15.373Z,100.00
2024-02-10T06:57:17.064Z,100.00
2024-02-10T06:58:22.953Z,100.00
2024-02-10T06:59:26.720Z,100.00
2024-02-10T07:00:28.997Z,100.00
2024-02-10T07:01:31.221Z,100.00
2024-02-10T07:02:32.753Z,100.00
2024-02-10T07:03:34.303Z,100.00
2024-02-10T07:04:39.033Z,100.00
2024-02-10T07:05:40.828Z,100.00
2024-02-10T07:06:42.467Z,100.00
2024-02-10T07:07:47.782Z,100.00
2024-02-10T07:08:49.461Z,100.00
2024-02-10T07:09:51.045Z,100.00
2024-02-10T07:10:52.590Z,100.00
2024-02-10T07:11:54.109Z,100.00
2024-02-10T07:12:59.401Z,100.00
2024-02-10T07:14:05.397Z,100.00
2024-02-10T07:15:07.213Z,100.00
2024-02-10T07:16:09.981Z,100.00
2024-02-10T07:17:11.801Z,100.00
2024-02-10T07:18:14.340Z,100.00
2024-02-10T07:19:17.435Z,100.00
2024-02-10T07:20:24.399Z,100.00
2024-02-10T07:21:25.862Z,100.00
2024-02-10T07:22:31.207Z,100.00
2024-02-10T07:23:32.863Z,100.00
2024-02-10T07:24:34.936Z,100.00
2024-02-10T07:25:38.934Z,100.00
2024-02-10T07:26:43.744Z,100.00
2024-02-10T07:27:49.981Z,100.00
2024-02-10T07:28:53.807Z,100.00
2024-02-10T07:29:55.323Z,100.00
2024-02-10T07:30:58.368Z,100.00
2024-02-10T07:31:59.953Z,100.00
2024-02-10T07:33:11.528Z,100.00
2024-02-10T07:34:14.173Z,100.00
2024-02-10T07:35:17.178Z,100.00
2024-02-10T07:36:20.019Z,100.00
2024-02-10T07:37:22.452Z,100.00
2024-02-10T07:38:23.907Z,100.00
2024-02-10T07:39:26.657Z,100.00
2024-02-10T07:40:28.171Z,100.00
2024-02-10T07:41:29.777Z,100.00
2024-02-10T07:42:31.266Z,100.00
2024-02-10T07:43:33.281Z,100.00
2024-02-10T07:44:36.758Z,100.00
2024-02-10T07:45:38.283Z,100.00
2024-02-10T07:46:40.680Z,100.00
2024-02-10T07:47:42.248Z,100.00
2024-02-10T07:48:43.885Z,100.00
2024-02-10T07:49:48.049Z,100.00
2024-02-10T07:50:50.759Z,100.00
2024-02-10T07:51:52.604Z,100.00
2024-02-10T07:52:54.611Z,100.00
2024-02-10T07:53:57.979Z,100.00
2024-02-10T07:54:59.503Z,100.00
2024-02-10T07:56:02.302Z,100.00
2024-02-10T07:57:03.979Z,100.00
2024-02-10T07:58:10.665Z,100.00
2024-02-10T07:59:12.396Z,100.00
2024-02-10T08:00:19.626Z,100.00
2024-02-10T08:01:21.892Z,100.00
2024-02-10T08:02:27.261Z,100.00
2024-02-10T08:03:28.850Z,100.00
2024-02-10T08:04:30.433Z,100.00
2024-02-10T08:05:32.128Z,100.00
2024-02-10T08:06:34.196Z,100.00
2024-02-10T08:07:35.860Z,100.00
2024-02-10T08:08:37.739Z,100.00
2024-02-10T08:09:40.094Z,100.00
2024-02-10T08:10:41.781Z,100.00
2024-02-10T08:11:44.894Z,100.00
2024-02-10T08:12:49.807Z,100.00
2024-02-10T08:13:53.009Z,100.00
2024-02-10T08:14:56.212Z,100.00
2024-02-10T08:15:59.547Z,100.00
2024-02-10T08:17:02.893Z,100.00
2024-02-10T08:18:10.895Z,100.00
2024-02-10T08:19:13.590Z,100.00
2024-02-10T08:20:15.546Z,100.00
2024-02-10T08:21:21.253Z,100.00
2024-02-10T08:22:22.784Z,100.00
2024-02-10T08:23:24.907Z,100.00
2024-02-10T08:24:32.329Z,100.00
2024-02-10T08:25:33.817Z,100.00
2024-02-10T08:26:38.783Z,100.00
2024-02-10T08:27:41.880Z,100.00
2024-02-10T08:28:43.393Z,100.00
2024-02-10T08:29:45.037Z,100.00
2024-02-10T08:30:46.619Z,100.00
2024-02-10T08:31:48.177Z,100.00
2024-02-10T08:32:50.091Z,100.00
2024-02-10T08:33:52.010Z,100.00
2024-02-10T08:34:54.727Z,100.00
2024-02-10T08:35:56.788Z,100.00
2024-02-10T08:36:58.608Z,100.00
2024-02-10T08:38:00.162Z,100.00
2024-02-10T08:39:05.039Z,100.00
2024-02-10T08:40:10.751Z,100.00
2024-02-10T08:41:12.539Z,100.00
2024-02-10T08:42:17.719Z,100.00
2024-02-10T08:43:20.110Z,100.00
2024-02-10T08:44:22.833Z,100.00
2024-02-10T08:45:24.492Z,100.00
2024-02-10T08:46:26.481Z,100.00
2024-02-10T08:47:30.191Z,100.00
2024-02-10T08:48:31.853Z,100.00
2024-02-10T08:49:38.038Z,100.00
2024-02-10T08:50:42.988Z,100.00
2024-02-10T08:51:59.896Z,100.00
2024-02-10T08:53:09.530Z,100.00
2024-02-10T08:54:13.817Z,100.00
2024-02-10T08:55:16.152Z,100.00
2024-02-10T08:56:21.268Z,100.00
2024-02-10T08:57:26.327Z,100.00
2024-02-10T08:58:27.916Z,100.00
2024-02-10T08:59:33.580Z,100.00
2024-02-10T09:00:35.470Z,100.00
2024-02-10T09:01:38.781Z,100.00
2024-02-10T09:02:40.309Z,100.00
2024-02-10T09:03:41.767Z,100.00
2024-02-10T09:04:43.870Z,100.00
2024-02-10T09:05:46.781Z,100.00
2024-02-10T09:06:48.328Z,100.00
2024-02-10T09:07:49.905Z,100.00
2024-02-10T09:08:54.314Z,100.00
2024-02-10T09:09:55.934Z,100.00
2024-02-10T09:10:57.527Z,100.00
2024-02-10T09:11:59.083Z,100.00
2024-02-10T09:13:03.339Z,100.00
2024-02-10T09:14:05.638Z,100.00
2024-02-10T09:15:07.537Z,100.00
2024-02-10T09:16:09.043Z,100.00
2024-02-10T09:17:10.570Z,100.00
2024-02-10T09:18:13.237Z,100.00
2024-02-10T09:19:17.654Z,100.00
2024-02-10T09:20:19.383Z,100.00
2024-02-10T09:21:20.912Z,100.00
2024-02-10T09:22:22.715Z,100.00
2024-02-10T09:23:24.173Z,100.00
2024-02-10T09:24:27.177Z,100.00
2024-02-10T09:25:29.705Z,100.00
2024-02-10T09:26:31.242Z,100.00
2024-02-10T09:27:32.776Z,100.00
2024-02-10T09:28:34.266Z,100.00
2024-02-10T09:29:35.868Z,100.00
2024-02-10T09:30:37.490Z,100.00
2024-02-10T09:31:44.764Z,100.00
2024-02-10T09:32:46.774Z,100.00
2024-02-10T09:33:48.560Z,100.00
2024-02-10T09:34:50.389Z,100.00
2024-02-10T09:35:53.183Z,100.00
2024-02-10T09:36:59.206Z,100.00
2024-02-10T09:38:00.906Z,100.00
2024-02-10T09:39:04.689Z,100.00
2024-02-10T09:40:09.117Z,100.00
2024-02-10T09:41:11.285Z,100.00
2024-02-10T09:42:21.947Z,100.00
2024-02-10T09:43:32.753Z,100.00
2024-02-10T09:44:34.300Z,100.00
2024-02-10T09:45:42.949Z,100.00
2024-02-10T09:46:45.625Z,100.00
2024-02-10T09:47:49.365Z,100.00
2024-02-10T09:48:53.004Z,100.00
2024-02-10T09:50:01.831Z,100.00
2024-02-10T09:51:04.285Z,100.00
2024-02-10T09:52:05.945Z,100.00
2024-02-10T09:53:07.774Z,100.00
2024-02-10T09:54:10.986Z,100.00
2024-02-10T09:55:12.506Z,100.00
2024-02-10T09:56:15.401Z,100.00
2024-02-10T09:57:21.015Z,100.00
2024-02-10T09:58:25.562Z,100.00
2024-02-10T09:59:27.707Z,100.00
2024-02-10T10:00:29.614Z,100.00
2024-02-10T10:01:33.943Z,100.00
2024-02-10T10:02:35.836Z,100.00
2024-02-10T10:03:41.137Z,100.00
2024-02-10T10:04:42.838Z,100.00
2024-02-10T10:05:47.252Z,100.00
2024-02-10T10:06:49.588Z,100.00
2024-02-10T10:07:54.245Z,100.00
2024-02-10T10:08:58.977Z,100.00
2024-02-10T10:10:00.443Z,100.00
2024-02-10T10:11:02.752Z,100.00
2024-02-10T10:12:10.912Z,100.00
2024-02-10T10:13:12.571Z,100.00
2024-02-10T10:14:18.208Z,100.00
2024-02-10T10:15:19.818Z,100.00
2024-02-10T10:16:22.502Z,100.00
2024-02-10T10:17:37.077Z,100.00
2024-02-10T10:18:38.873Z,100.00
2024-02-10T10:19:40.530Z,100.00
2024-02-10T10:20:49.183Z,100.00
2024-02-10T10:21:53.339Z,100.00
2024-02-10T10:22:56.523Z,100.00
2024-02-10T10:23:58.635Z,100.00
2024-02-10T10:25:00.136Z,100.00
2024-02-10T10:26:01.843Z,100.00
2024-02-10T10:27:03.582Z,100.00
2024-02-10T10:28:05.959Z,100.00
2024-02-10T10:29:08.978Z,100.00
2024-02-10T10:30:13.962Z,100.00
2024-02-10T10:31:18.736Z,100.00
2024-02-10T10:32:23.858Z,100.00
2024-02-10T10:33:27.197Z,100.00
2024-02-10T10:34:32.991Z,100.00
2024-02-10T10:35:35.774Z,100.00
2024-02-10T10:36:38.193Z,100.00
2024-02-10T10:37:39.792Z,100.00
2024-02-10T10:38:43.718Z,100.00
2024-02-10T10:39:48.657Z,100.00
2024-02-10T10:40:54.327Z,100.00
2024-02-10T10:41:56.836Z,100.00
2024-02-10T10:43:02.199Z,100.00
2024-02-10T10:44:05.381Z,100.00
2024-02-10T10:45:08.775Z,100.00
2024-02-10T10:46:12.780Z,100.00
2024-02-10T10:47:16.562Z,100.00
2024-02-10T10:48:18.485Z,100.00
2024-02-10T10:49:20.190Z,100.00
2024-02-10T10:50:21.702Z,100.00
2024-02-10T10:51:29.108Z,100.00
2024-02-10T10:52:34.266Z,100.00
2024-02-10T10:53:36.802Z,100.00
2024-02-10T10:54:39.835Z,100.00
2024-02-10T10:55:45.409Z,100.00
2024-02-10T10:56:49.416Z,100.00
2024-02-10T10:57:51.130Z,100.00
2024-02-10T10:59:00.003Z,100.00
2024-02-10T11:00:16.272Z,100.00
2024-02-10T11:01:21.909Z,100.00
2024-02-10T11:02:36.938Z,100.00
2024-02-10T11:03:43.524Z,100.00
2024-02-10T11:04:45.162Z,100.00
2024-02-10T11:05:52.535Z,100.00
2024-02-10T11:06:57.038Z,100.00
2024-02-10T11:08:05.033Z,100.00
2024-02-10T11:09:07.882Z,100.00
2024-02-10T11:10:10.247Z,100.00
2024-02-10T11:11:14.713Z,100.00
2024-02-10T11:12:16.545Z,100.00
2024-02-10T11:13:23.267Z,100.00
2024-02-10T11:14:24.787Z,100.00
2024-02-10T11:15:27.639Z,100.00
2024-02-10T11:16:34.961Z,100.00
2024-02-10T11:17:37.370Z,100.00
2024-02-10T11:18:58.657Z,100.00
2024-02-10T11:20:09.317Z,100.00
2024-02-10T11:21:20.900Z,100.00
2024-02-10T11:22:27.294Z,100.00
2024-02-10T11:23:30.691Z,100.00
2024-02-10T11:24:32.181Z,100.00
2024-02-10T11:25:37.815Z,100.00
2024-02-10T11:26:40.705Z,100.00
2024-02-10T11:27:43.393Z,100.00
2024-02-10T11:28:44.933Z,100.00
2024-02-10T11:29:47.884Z,100.00
2024-02-10T11:30:52.530Z,100.00
2024-02-10T11:31:54.059Z,100.00
2024-02-10T11:32:55.617Z,100.00
2024-02-10T11:34:05.977Z,100.00
2024-02-10T11:35:09.715Z,100.00
2024-02-10T11:36:12.090Z,100.00
2024-02-10T11:37:13.943Z,100.00
2024-02-10T11:38:15.812Z,100.00
2024-02-10T11:39:17.347Z,100.00
2024-02-10T11:40:20.608Z,100.00
2024-02-10T11:41:22.248Z,100.00
2024-02-10T11:42:26.350Z,100.00
2024-02-10T11:43:28.769Z,100.00
2024-02-10T11:44:31.262Z,100.00
2024-02-10T11:45:34.075Z,100.00
2024-02-10T11:46:40.879Z,100.00
2024-02-10T11:47:44.215Z,100.00
2024-02-10T11:48:46.833Z,100.00
2024-02-10T11:49:49.530Z,100.00
2024-02-10T11:50:59.662Z,100.00
2024-02-10T11:52:09.135Z,100.00
2024-02-10T11:53:16.548Z,100.00
2024-02-10T11:54:18.061Z,100.00
2024-02-10T11:55:21.064Z,100.00
2024-02-10T11:56:22.652Z,100.00
2024-02-10T11:57:27.714Z,100.00
2024-02-10T11:58:30.987Z,100.00
2024-02-10T11:59:33.924Z,100.00
2024-02-10T12:00:35.570Z,100.00
2024-02-10T12:01:37.894Z,100.00
2024-02-10T12:02:40.353Z,100.00
2024-02-10T12:03:44.979Z,100.00
2024-02-10T12:04:48.497Z,100.00
2024-02-10T12:05:50.450Z,100.00
2024-02-10T12:06:52.060Z,100.00
2024-02-10T12:07:54.216Z,100.00
2024-02-10T12:08:55.981Z,100.00
2024-02-10T12:09:57.419Z,100.00
2024-02-10T12:10:59.102Z,100.00
2024-02-10T12:12:01.276Z,99.48
2024-02-10T12:13:02.734Z,100.00
2024-02-10T12:14:07.924Z,98.01
2024-02-10T12:15:13.073Z,99.86
2024-02-10T12:16:17.227Z,98.90
2024-02-10T12:17:20.721Z,100.00
2024-02-10T12:18:23.224Z,99.80
2024-02-10T12:19:24.717Z,98.96
2024-02-10T12:20:26.989Z,97.36
2024-02-10T12:21:28.805Z,100.00
2024-02-10T12:22:31.299Z,100.00
2024-02-10T12:23:33.444Z,95.47
2024-02-10T12:24:34.961Z,96.33
2024-02-10T12:25:38.677Z,99.87
2024-02-10T12:26:40.221Z,98.25
2024-02-10T12:27:41.738Z,93.11
2024-02-10T12:28:43.288Z,91.53
2024-02-10T12:29:46.814Z,92.78
2024-02-10T12:30:48.314Z,94.88
2024-02-10T12:31:51.274Z,99.58
2024-02-10T12:32:52.984Z,96.80
2024-02-10T12:33:56.295Z,90.31
2024-02-10T12:34:58.216Z,91.48
2024-02-10T12:36:01.056Z,92.45
2024-02-10T12:37:02.507Z,93.04
2024-02-10T12:38:04.405Z,95.05
2024-02-10T12:39:11.526Z,94.82
2024-02-10T12:40:13.494Z,94.87
2024-02-10T12:41:17.622Z,97.35
2024-02-10T12:42:21.512Z,97.07
2024-02-10T12:43:25.441Z,97.87
2024-02-10T12:44:27.522Z,100.00
2024-02-10T12:45:29.099Z,99.29
2024-02-10T12:46:30.982Z,97.67
2024-02-10T12:47:32.421Z,93.51
2024-02-10T12:48:34.000Z,95.77
2024-02-10T12:49:35.751Z,96.16
2024-02-10T12:50:37.209Z,95.35
2024-02-10T12:51:38.833Z,95.54
2024-02-10T12:52:41.345Z,95.97
2024-02-10T12:53:43.911Z,95.42
2024-02-10T12:54:45.417Z,97.98
2024-02-10T12:55:47.813Z,100.00
2024-02-10T12:56:49.497Z,100.00
2024-02-10T12:57:52.978Z,100.00
2024-02-10T12:58:55.358Z,100.00
2024-02-10T12:59:59.181Z,100.00
2024-02-10T13:01:00.815Z,100.00
2024-02-10T13:02:02.436Z,100.00
2024-02-10T13:03:04.323Z,100.00
2024-02-10T13:04:06.026Z,100.00
2024-02-10T13:05:11.226Z,100.00
2024-02-10T13:06:13.010Z,100.00
2024-02-10T13:07:18.216Z,98.95
2024-02-10T13:08:19.666Z,100.00